Time;durP1;ratioP1;P1;durP2;ratioP2;P2;SDS_P1;SDS_P2;PMS_P1;PMS_P2;Temp;Humidity;BMP_temperature;BMP_pressure;BME280_temperature;BME280_humidity;BME280_pressure;Samples;Min_cycle;Max_cycle;Signal;HPM_P1;HPM_P2
2022/03/08 00:02:24;;;;;;;;;45.75;36.50;;;;;3.84;43.75;101460.13;4975226;28;45572;-42
2022/03/08 00:04:50;;;;;;;;;40.00;31.50;;;;;3.86;43.52;101460.88;4974974;28;45490;-46
2022/03/08 00:07:15;;;;;;;;;35.00;31.50;;;;;3.84;43.75;101462.75;4975137;28;45481;-45
2022/03/08 00:09:41;;;;;;;;;37.25;29.25;;;;;3.80;43.32;101455.97;4973953;28;45563;-42
2022/03/08 00:12:07;;;;;;;;;44.25;32.75;;;;;3.71;43.53;101431.88;4974996;28;46239;-43
2022/03/08 00:14:34;;;;;;;;;36.50;31.25;;;;;3.79;43.47;101443.72;4974967;28;45442;-43
2022/03/08 00:16:59;;;;;;;;;32.75;27.50;;;;;3.74;43.00;101444.81;4975127;28;45256;-45
2022/03/08 00:19:25;;;;;;;;;41.25;34.00;;;;;3.69;44.35;101438.97;4975152;28;45212;-46
2022/03/08 00:21:50;;;;;;;;;45.50;35.00;;;;;3.69;43.86;101444.25;4974578;28;46160;-43
2022/03/08 00:24:16;;;;;;;;;43.00;33.50;;;;;3.66;44.52;101444.41;4974741;28;45399;-44
2022/03/08 00:26:42;;;;;;;;;50.25;34.00;;;;;3.65;43.58;101447.13;4975043;28;45362;-43
2022/03/08 00:29:08;;;;;;;;;40.75;34.75;;;;;3.64;43.92;101443.66;4975140;28;45326;-44
2022/03/08 00:31:33;;;;;;;;;35.75;31.25;;;;;3.61;44.39;101440.34;4974681;28;46193;-43
2022/03/08 00:33:59;;;;;;;;;38.50;31.75;;;;;3.62;43.75;101450.78;4974536;28;45285;-42
2022/03/08 00:36:25;;;;;;;;;50.00;34.25;;;;;3.50;44.84;101433.06;4974874;28;45391;-44
2022/03/08 00:38:52;;;;;;;;;35.75;25.00;;;;;3.59;44.00;101450.97;4975124;28;45382;-44
2022/03/08 00:41:17;;;;;;;;;48.00;38.00;;;;;3.56;44.39;101442.38;4974489;28;47067;-45
2022/03/08 00:43:43;;;;;;;;;49.00;36.00;;;;;3.56;44.22;101445.84;4974331;28;45345;-42
2022/03/08 00:46:08;;;;;;;;;28.00;22.75;;;;;3.54;44.46;101445.09;4974650;28;45421;-43
2022/03/08 00:48:34;;;;;;;;;43.50;38.50;;;;;3.51;44.89;101442.63;4974571;28;45652;-43
2022/03/08 00:50:59;;;;;;;;;45.25;33.25;;;;;3.48;44.59;101442.81;4974444;28;46210;-44
2022/03/08 00:53:25;;;;;;;;;47.75;35.25;;;;;3.50;44.69;101452.31;4974452;28;45294;-44
2022/03/08 00:55:50;;;;;;;;;36.50;32.00;;;;;3.43;44.78;101431.69;4974616;28;45397;-44
2022/03/08 00:58:16;;;;;;;;;47.50;32.00;;;;;3.45;44.54;101442.97;4974748;28;45314;-45
2022/03/08 01:00:41;;;;;;;;;34.25;29.00;;;;;3.47;44.12;101430.59;4974446;28;45468;-45
2022/03/08 01:03:07;;;;;;;;;35.25;29.75;;;;;3.47;44.96;101439.31;4974153;28;45305;-44
2022/03/08 01:05:34;;;;;;;;;45.50;35.25;;;;;3.42;44.31;101436.09;4973315;28;45332;-45
2022/03/08 01:08:00;;;;;;;;;58.00;40.00;;;;;3.43;45.01;101439.56;4974548;28;45424;-42
2022/03/08 01:10:26;;;;;;;;;44.50;30.75;;;;;3.42;45.16;101435.25;4974056;28;46958;-45
2022/03/08 01:12:53;;;;;;;;;42.00;36.50;;;;;3.38;44.92;101433.72;4974023;28;45300;-46
2022/03/08 01:15:19;;;;;;;;;32.25;26.25;;;;;3.25;44.72;101410.72;4974457;28;45244;-45
2022/03/08 01:17:47;;;;;;;;;46.25;36.00;;;;;3.33;45.31;101433.09;4974387;28;45245;-49
2022/03/08 01:20:13;;;;;;;;;44.50;30.50;;;;;3.32;45.13;101428.78;4973819;28;46259;-46
2022/03/08 01:22:39;;;;;;;;;50.00;36.50;;;;;3.24;44.79;101416.03;4973899;28;45421;-45
2022/03/08 01:25:06;;;;;;;;;46.00;36.00;;;;;3.28;44.91;101427.25;4974187;28;45261;-44
2022/03/08 01:27:31;;;;;;;;;41.50;32.00;;;;;3.26;45.05;101432.59;4974171;28;45399;-43
2022/03/08 01:29:57;;;;;;;;;48.75;37.00;;;;;3.25;45.22;101434.38;4974060;28;45381;-42
2022/03/08 01:32:22;;;;;;;;;42.25;35.50;;;;;3.25;45.55;101425.66;4974035;28;45402;-44
2022/03/08 01:34:48;;;;;;;;;44.00;34.25;;;;;3.21;45.33;101421.50;4973908;28;45375;-43
2022/03/08 01:37:14;;;;;;;;;50.25;33.75;;;;;3.16;45.44;101421.75;4974105;28;45310;-46
2022/03/08 01:39:40;;;;;;;;;42.75;34.00;;;;;3.16;45.40;101427.00;4973724;28;45407;-45
2022/03/08 01:42:10;;;;;;;;;40.75;31.50;;;;;3.16;46.00;101420.88;4973790;28;45429;-42
2022/03/08 01:44:36;;;;;;;;;37.00;21.50;;;;;3.16;45.16;101420.88;4973721;28;45336;-44
2022/03/08 01:47:01;;;;;;;;;38.25;32.00;;;;;3.14;45.72;101420.13;4973907;28;45416;-43
2022/03/08 01:49:27;;;;;;;;;47.00;33.00;;;;;3.12;45.32;101419.34;4973469;28;45379;-45
2022/03/08 01:51:52;;;;;;;;;48.50;32.75;;;;;3.12;45.73;101421.97;4973534;28;45438;-46
2022/03/08 01:54:18;;;;;;;;;45.25;32.25;;;;;3.11;45.55;101418.50;4973751;28;45343;-44
2022/03/08 01:56:43;;;;;;;;;46.25;28.50;;;;;3.07;45.76;101418.75;4973689;28;45341;-43
2022/03/08 01:59:09;;;;;;;;;43.75;29.75;;;;;3.11;45.49;101417.66;4973594;28;45352;-43
2022/03/08 02:01:34;;;;;;;;;35.50;29.50;;;;;3.07;45.60;101409.06;4973406;28;45276;-44
2022/03/08 02:04:00;;;;;;;;;37.00;33.75;;;;;3.11;46.08;101415.00;4973453;28;45791;-43
2022/03/08 02:06:25;;;;;;;;;48.00;31.75;;;;;3.14;45.74;101422.75;4973779;28;45220;-45
2022/03/08 02:08:51;;;;;;;;;39.75;30.00;;;;;3.14;45.41;101415.69;4973142;28;46267;-45
2022/03/08 02:11:16;;;;;;;;;36.00;29.00;;;;;3.13;44.99;101418.44;4973521;28;45319;-45
2022/03/08 02:13:43;;;;;;;;;36.75;30.00;;;;;3.12;45.59;101414.06;4973313;28;45300;-45
2022/03/08 02:16:10;;;;;;;;;40.75;34.25;;;;;3.09;45.53;101412.47;4975352;28;45457;-45
2022/03/08 02:18:35;;;;;;;;;36.50;31.75;;;;;3.07;45.54;101413.47;4976175;28;45454;-45
2022/03/08 02:21:08;;;;;;;;;49.00;38.00;;;;;3.03;46.21;101418.03;4975998;28;45582;-47
2022/03/08 02:23:34;;;;;;;;;45.25;34.25;;;;;3.03;46.12;101407.53;4976532;28;45445;-44
2022/03/08 02:26:03;;;;;;;;;38.25;32.50;;;;;3.01;46.14;101401.53;4976481;28;45284;-44
2022/03/08 02:28:29;;;;;;;;;51.00;35.50;;;;;3.02;46.30;101395.31;4976260;28;46420;-43
2022/03/08 02:30:55;;;;;;;;;41.50;31.75;;;;;3.02;45.98;101394.47;4976302;28;45447;-45
2022/03/08 02:33:20;;;;;;;;;45.00;34.00;;;;;3.02;46.05;101394.47;4977573;28;45371;-45
2022/03/08 02:35:46;;;;;;;;;34.25;26.75;;;;;2.99;46.01;101384.97;4976617;28;45326;-43
2022/03/08 02:38:12;;;;;;;;;30.50;28.00;;;;;2.99;46.39;101395.47;4976120;28;46000;-44
2022/03/08 02:40:38;;;;;;;;;34.25;28.00;;;;;2.99;46.39;101403.38;4976081;28;45362;-44
2022/03/08 02:43:06;;;;;;;;;32.75;27.75;;;;;2.94;46.32;101387.00;4976035;28;45405;-45
2022/03/08 02:45:32;;;;;;;;;42.75;34.25;;;;;2.92;46.17;101388.88;4976283;28;45368;-44
2022/03/08 02:47:58;;;;;;;;;44.50;32.50;;;;;2.89;46.16;101389.03;4975729;28;46405;-43
2022/03/08 02:50:23;;;;;;;;;39.25;32.00;;;;;2.88;46.15;101380.31;4975794;28;45521;-44
2022/03/08 02:52:52;;;;;;;;;52.25;34.75;;;;;2.86;46.21;101387.41;4976220;28;45310;-43
2022/03/08 02:55:21;;;;;;;;;36.75;31.75;;;;;2.87;46.05;101369.88;4976182;28;45429;-44
2022/03/08 02:57:47;;;;;;;;;24.75;20.50;;;;;2.89;46.51;101374.13;4975744;28;45488;-43
2022/03/08 03:00:15;;;;;;;;;47.00;36.75;;;;;2.84;46.70;101365.63;4975673;28;45356;-42
2022/03/08 03:02:41;;;;;;;;;34.75;30.00;;;;;2.83;46.16;101361.31;4975995;28;45355;-46
2022/03/08 03:05:07;;;;;;;;;59.00;37.00;;;;;2.79;46.77;101364.19;4975902;28;45477;-45
2022/03/08 03:07:33;;;;;;;;;44.00;33.50;;;;;2.79;46.80;101358.94;4975570;28;47381;-44
2022/03/08 03:09:58;;;;;;;;;35.75;29.75;;;;;2.80;47.19;101360.63;4975840;28;45407;-45
2022/03/08 03:12:24;;;;;;;;;43.50;36.00;;;;;2.79;46.85;101361.56;4975771;28;45371;-43
2022/03/08 03:14:50;;;;;;;;;35.75;33.00;;;;;2.77;46.99;101352.91;4976049;28;45381;-44
2022/03/08 03:17:17;;;;;;;;;51.00;33.25;;;;;2.77;47.20;101355.53;4975599;28;46300;-43
2022/03/08 03:19:43;;;;;;;;;44.50;33.50;;;;;2.73;47.17;101350.44;4975455;28;45454;-43
2022/03/08 03:22:09;;;;;;;;;46.25;33.75;;;;;2.72;46.78;101351.38;4975694;28;45390;-44
2022/03/08 03:24:34;;;;;;;;;41.75;33.75;;;;;2.70;47.24;101363.75;4975814;28;45336;-44
2022/03/08 03:27:00;;;;;;;;;40.50;30.75;;;;;2.71;47.03;101356.72;4974619;28;46861;-45
2022/03/08 03:29:25;;;;;;;;;56.75;30.75;;;;;2.64;46.80;101336.94;4975546;28;45257;-46
2022/03/08 03:31:50;;;;;;;;;48.50;37.00;;;;;2.69;46.99;101351.53;4975644;28;45297;-45
2022/03/08 03:34:16;;;;;;;;;38.25;33.00;;;;;2.70;47.25;101361.13;4975745;28;45232;-44
2022/03/08 03:36:41;;;;;;;;;49.00;34.75;;;;;2.65;47.00;101341.25;4975222;28;45264;-45
2022/03/08 03:39:07;;;;;;;;;38.00;30.50;;;;;2.65;47.06;101342.09;4975519;28;45291;-45
2022/03/08 03:41:33;;;;;;;;;43.50;37.25;;;;;2.65;47.29;101338.63;4975453;28;45467;-45
2022/03/08 03:43:58;;;;;;;;;49.75;33.50;;;;;2.66;47.36;101335.94;4975464;28;45567;-45
2022/03/08 03:46:24;;;;;;;;;42.50;37.00;;;;;2.63;47.20;101336.09;4975223;28;47135;-44
2022/03/08 03:48:49;;;;;;;;;41.00;29.75;;;;;2.58;46.75;101340.75;4975182;28;45429;-47
2022/03/08 03:51:16;;;;;;;;;42.50;28.75;;;;;2.63;46.19;101336.09;4975353;28;45430;-46
2022/03/08 03:53:42;;;;;;;;;46.00;31.50;;;;;2.60;47.17;101344.13;4975404;28;45384;-47
2022/03/08 03:56:08;;;;;;;;;36.25;36.00;;;;;2.59;47.45;101339.81;4975077;28;46192;-43
2022/03/08 03:58:34;;;;;;;;;45.00;32.25;;;;;2.59;47.08;101337.19;4975164;28;45383;-45
2022/03/08 04:00:59;;;;;;;;;42.00;31.00;;;;;2.50;46.82;101324.53;4975281;28;45467;-45
2022/03/08 04:03:24;;;;;;;;;45.50;30.50;;;;;2.57;47.03;101336.44;4975455;28;45334;-45
2022/03/08 04:05:50;;;;;;;;;44.00;37.50;;;;;2.56;47.76;101347.00;4974818;28;46250;-46
2022/03/08 04:08:20;;;;;;;;;54.00;35.50;;;;;2.56;47.63;101341.75;4975069;28;45250;-44
2022/03/08 04:10:49;;;;;;;;;46.25;36.50;;;;;2.52;47.74;101348.94;4975392;28;45553;-44
2022/03/08 04:13:15;;;;;;;;;51.00;31.50;;;;;2.49;47.54;101339.47;4975437;28;45630;-44
2022/03/08 04:15:41;;;;;;;;;49.25;35.75;;;;;2.45;47.82;101343.16;4974752;28;45343;-46
2022/03/08 04:18:07;;;;;;;;;46.25;39.25;;;;;2.40;48.06;101339.06;4974883;28;45411;-46
2022/03/08 04:20:32;;;;;;;;;44.50;36.00;;;;;2.44;48.08;101332.72;4974888;28;45351;-44
2022/03/08 04:22:58;;;;;;;;;49.50;36.75;;;;;2.41;47.88;101346.03;4975057;28;45433;-46
2022/03/08 04:25:23;;;;;;;;;50.25;35.25;;;;;2.42;48.14;101347.72;4976745;27;45233;-45
2022/03/08 04:27:48;;;;;;;;;45.00;30.75;;;;;2.41;48.14;101346.03;4974849;28;45678;-43
2022/03/08 04:30:14;;;;;;;;;47.25;39.75;;;;;2.41;48.54;101346.03;4974903;28;45393;-46
2022/03/08 04:32:39;;;;;;;;;44.75;36.00;;;;;2.40;48.13;101342.56;4975046;28;45447;-43
2022/03/08 04:35:05;;;;;;;;;36.25;26.75;;;;;2.32;47.48;101320.22;4974898;28;46743;-42
2022/03/08 04:37:31;;;;;;;;;44.50;35.75;;;;;2.37;47.96;101336.63;4974533;28;45389;-47
2022/03/08 04:39:56;;;;;;;;;37.75;30.25;;;;;2.33;48.02;101338.56;4973405;28;45446;-45
2022/03/08 04:42:22;;;;;;;;;47.50;33.00;;;;;2.27;48.46;101328.34;4974897;28;45437;-44
2022/03/08 04:44:47;;;;;;;;;46.00;36.75;;;;;2.26;48.52;101331.91;4974405;28;46998;-43
2022/03/08 04:47:12;;;;;;;;;35.00;32.25;;;;;2.28;48.21;101329.22;4974455;28;45353;-43
2022/03/08 04:49:38;;;;;;;;;43.75;34.50;;;;;2.27;48.13;101330.97;4974596;28;45264;-47
2022/03/08 04:52:04;;;;;;;;;49.25;34.00;;;;;1.71;48.58;101246.38;4974602;28;45329;-44
2022/03/08 04:54:29;;;;;;;;;44.00;35.25;;;;;2.23;48.02;101329.44;4974514;28;45498;-44
2022/03/08 04:56:55;;;;;;;;;43.75;35.75;;;;;2.24;48.62;101332.00;4974676;28;45233;-42
2022/03/08 04:59:20;;;;;;;;;42.50;34.00;;;;;2.23;48.44;101327.69;4974520;28;45208;-44
2022/03/08 05:01:46;;;;;;;;;43.00;32.00;;;;;2.24;47.61;101328.53;4974558;28;45304;-43
2022/03/08 05:04:11;;;;;;;;;41.75;34.50;;;;;2.21;48.69;101329.53;4989458;28;46830;-46
2022/03/08 05:06:36;;;;;;;;;38.75;27.75;;;;;2.20;48.20;101319.97;4974078;28;45615;-45
2022/03/08 05:09:02;;;;;;;;;43.50;36.50;;;;;2.17;48.58;101322.75;4974380;28;45251;-44
2022/03/08 05:11:28;;;;;;;;;51.00;37.50;;;;;2.16;49.13;101323.66;4974604;28;45400;-44
2022/03/08 05:13:53;;;;;;;;;48.75;36.75;;;;;2.14;49.03;101322.88;4972761;28;45925;-44
2022/03/08 05:16:19;;;;;;;;;51.50;34.00;;;;;2.16;48.88;101331.53;4974222;28;45423;-42
2022/03/08 05:18:44;;;;;;;;;43.50;36.50;;;;;2.15;49.36;101327.22;4972773;28;45446;-43
2022/03/08 05:21:09;;;;;;;;;35.75;30.00;;;;;2.18;48.76;101328.84;4974170;28;45433;-44
2022/03/08 05:23:35;;;;;;;;;50.50;36.00;;;;;2.09;49.18;101317.03;4973860;28;46045;-45
2022/03/08 05:26:00;;;;;;;;;49.75;41.00;;;;;2.19;48.79;101327.91;4974038;28;45305;-45
2022/03/08 05:28:25;;;;;;;;;57.25;37.00;;;;;2.20;49.03;101321.75;4974038;28;45403;-43
2022/03/08 05:30:51;;;;;;;;;24.50;20.50;;;;;2.19;48.17;101325.28;4974192;28;45585;-42
2022/03/08 05:33:17;;;;;;;;;52.25;37.25;;;;;2.07;48.91;101303.16;4973820;28;46074;-44
2022/03/08 05:35:42;;;;;;;;;38.00;30.50;;;;;2.18;48.82;101320.97;4973937;28;45455;-46
2022/03/08 05:38:07;;;;;;;;;44.75;37.75;;;;;2.17;48.73;101316.63;4973500;28;45937;-43
2022/03/08 05:40:33;;;;;;;;;38.25;27.25;;;;;2.16;49.08;101314.94;4974069;28;45479;-43
2022/03/08 05:43:01;;;;;;;;;49.50;34.50;;;;;2.08;49.38;101307.47;4973390;28;46178;-43
2022/03/08 05:45:28;;;;;;;;;32.50;24.00;;;;;2.16;48.88;101326.28;4973704;28;45242;-46
2022/03/08 05:47:53;;;;;;;;;39.50;32.75;;;;;2.16;49.43;101321.03;4973852;28;45449;-44
2022/03/08 05:50:19;;;;;;;;;39.50;31.00;;;;;2.16;49.48;101320.19;4974635;28;45212;-44
2022/03/08 05:52:44;;;;;;;;;39.50;34.25;;;;;2.14;49.21;101322.88;4976714;28;46579;-43
2022/03/08 05:55:10;;;;;;;;;38.50;28.50;;;;;2.07;49.30;101313.66;4976639;28;45490;-44
2022/03/08 05:57:35;;;;;;;;;39.25;33.75;;;;;2.15;48.98;101323.72;4976765;28;45398;-44
2022/03/08 06:00:01;;;;;;;;;39.75;25.50;;;;;2.15;48.68;101318.47;4977037;28;45287;-44
2022/03/08 06:02:26;;;;;;;;;43.25;32.25;;;;;2.14;48.44;101325.50;4976306;28;45358;-44
2022/03/08 06:04:51;;;;;;;;;41.00;35.50;;;;;2.11;48.72;101325.69;4976767;28;45453;-45
2022/03/08 06:07:17;;;;;;;;;52.50;27.25;;;;;2.11;49.52;101327.47;4976460;28;45318;-46
2022/03/08 06:09:42;;;;;;;;;28.75;26.00;;;;;2.08;49.28;101332.88;4976873;28;45562;-45
2022/03/08 06:12:09;;;;;;;;;48.25;37.00;;;;;2.02;49.45;101328.75;4975275;28;45352;-44
2022/03/08 06:14:34;;;;;;;;;50.50;34.00;;;;;2.05;49.73;101333.84;4976430;28;45492;-45
2022/03/08 06:17:00;;;;;;;;;48.50;40.00;;;;;2.03;49.60;101333.09;4976704;28;45221;-46
2022/03/08 06:19:25;;;;;;;;;42.75;38.50;;;;;2.03;49.34;101335.72;4976696;27;45389;-46
2022/03/08 06:21:51;;;;;;;;;41.75;37.25;;;;;2.05;49.66;101344.34;4976167;28;45332;-43
2022/03/08 06:24:17;;;;;;;;;45.25;31.50;;;;;2.04;49.36;101337.41;4976283;28;45308;-43
2022/03/08 06:26:42;;;;;;;;;46.50;36.75;;;;;2.06;49.72;101340.78;4976389;28;45434;-45
2022/03/08 06:29:09;;;;;;;;;39.75;30.00;;;;;2.03;49.45;101338.34;4976527;28;45328;-45
2022/03/08 06:31:34;;;;;;;;;46.25;39.25;;;;;2.05;49.54;101336.47;4976233;28;47141;-43
2022/03/08 06:34:00;;;;;;;;;57.00;41.00;;;;;2.06;49.63;101340.78;4976152;28;45240;-46
2022/03/08 06:36:25;;;;;;;;;46.50;36.25;;;;;2.08;49.82;101349.44;4976443;28;45351;-43
2022/03/08 06:38:50;;;;;;;;;61.50;39.50;;;;;2.09;49.80;101340.66;4976198;28;45717;-44
2022/03/08 06:41:16;;;;;;;;;43.25;36.50;;;;;2.11;50.15;101340.59;4976226;28;45374;-45
2022/03/08 06:43:41;;;;;;;;;41.75;32.50;;;;;2.17;49.81;101346.34;4976161;28;45455;-46
2022/03/08 06:46:08;;;;;;;;;51.75;37.75;;;;;2.14;49.63;101322.03;4975915;28;45434;-45
2022/03/08 06:48:34;;;;;;;;;44.75;30.00;;;;;2.27;49.45;101338.84;4976257;28;45372;-46
2022/03/08 06:50:59;;;;;;;;;55.00;39.50;;;;;2.32;49.83;101336.88;4975684;28;47271;-47
2022/03/08 06:53:25;;;;;;;;;38.50;35.50;;;;;2.36;48.96;101341.03;4990984;28;45409;-43
2022/03/08 06:55:50;;;;;;;;;44.75;39.00;;;;;2.39;49.52;101346.09;4976150;28;45229;-44
2022/03/08 06:58:15;;;;;;;;;48.50;34.50;;;;;2.42;49.29;101345.09;4976161;28;45386;-45
2022/03/08 07:00:41;;;;;;;;;44.50;37.50;;;;;2.44;49.36;101335.34;4975879;28;45337;-44
2022/03/08 07:03:07;;;;;;;;;52.75;39.75;;;;;2.47;49.17;101335.19;4974743;28;45253;-43
2022/03/08 07:05:32;;;;;;;;;50.50;37.25;;;;;2.48;49.00;101347.41;4975859;28;45327;-43
2022/03/08 07:07:58;;;;;;;;;47.75;37.25;;;;;2.49;49.34;101339.47;4975839;28;45439;-45
2022/03/08 07:10:23;;;;;;;;;49.00;37.00;;;;;2.54;49.03;101330.50;4975656;28;45391;-46
2022/03/08 07:12:50;;;;;;;;;49.75;40.00;;;;;2.56;49.14;101318.13;4975791;28;45435;-45
2022/03/08 07:15:15;;;;;;;;;32.00;25.25;;;;;2.66;47.76;101325.44;4975757;28;45354;-44
2022/03/08 07:17:47;;;;;;;;;47.00;35.50;;;;;2.64;48.58;101337.78;4975907;28;45765;-44
2022/03/08 07:20:13;;;;;;;;;57.50;40.50;;;;;2.66;49.06;101333.31;4975582;28;46453;-43
2022/03/08 07:22:39;;;;;;;;;47.50;38.00;;;;;2.72;48.63;101334.75;4975402;28;45475;-43
2022/03/08 07:25:06;;;;;;;;;52.25;38.25;;;;;2.77;48.10;101342.38;4975805;28;45257;-45
2022/03/08 07:27:32;;;;;;;;;59.00;39.75;;;;;2.79;48.48;101343.16;4975636;28;45620;-45
2022/03/08 07:29:58;;;;;;;;;48.75;36.00;;;;;2.78;48.33;101342.28;4975460;28;45464;-46
2022/03/08 07:32:23;;;;;;;;;47.00;39.75;;;;;2.83;48.30;101347.34;4975520;28;45422;-47
2022/03/08 07:34:48;;;;;;;;;44.75;41.75;;;;;2.82;48.51;101345.63;4975722;28;45434;-45
2022/03/08 07:37:14;;;;;;;;;49.50;37.75;;;;;2.87;48.18;101346.25;4975882;28;45331;-45
2022/03/08 07:39:39;;;;;;;;;55.00;42.00;;;;;2.94;48.46;101356.31;4975365;28;46248;-43
2022/03/08 07:42:05;;;;;;;;;45.75;40.50;;;;;2.98;48.19;101359.63;4975184;28;45198;-43
2022/03/08 07:44:30;;;;;;;;;46.25;36.00;;;;;2.99;47.90;101359.56;4975250;28;45437;-44
2022/03/08 07:46:56;;;;;;;;;68.25;44.00;;;;;2.94;48.02;101363.34;4975624;28;45366;-44
2022/03/08 07:49:22;;;;;;;;;52.25;43.25;;;;;3.01;48.08;101364.72;4975198;28;46237;-42
2022/03/08 07:51:49;;;;;;;;;45.00;33.50;;;;;3.03;47.54;101359.38;4976613;28;45367;-43
2022/03/08 07:54:14;;;;;;;;;68.25;44.75;;;;;3.08;47.73;101366.09;4975073;28;45440;-41
2022/03/08 07:56:39;;;;;;;;;54.25;45.00;;;;;3.13;47.74;101371.09;4974237;28;45496;-42
2022/03/08 07:59:05;;;;;;;;;52.75;39.50;;;;;3.17;47.52;101368.22;4974170;28;45506;-43
2022/03/08 08:01:31;;;;;;;;;46.25;38.00;;;;;3.23;47.14;101367.03;5062475;27;45413;-45
2022/03/08 08:03:56;;;;;;;;;37.25;29.75;;;;;3.28;47.19;101365.00;5077986;27;45930;-44
2022/03/08 08:06:21;;;;;;;;;68.25;47.00;;;;;3.35;47.40;101373.41;5077381;27;45336;-43
2022/03/08 08:08:47;;;;;;;;;55.50;44.00;;;;;3.40;47.08;101363.47;5076837;27;46373;-42
2022/03/08 08:11:12;;;;;;;;;41.50;30.50;;;;;3.44;47.30;101367.63;5077429;27;45417;-43
2022/03/08 08:13:38;;;;;;;;;56.50;44.75;;;;;3.47;47.32;101365.69;5076857;27;45457;-43
2022/03/08 08:16:03;;;;;;;;;57.00;42.00;;;;;3.49;47.60;101358.53;5077031;27;45408;-43
2022/03/08 08:18:28;;;;;;;;;59.25;43.50;;;;;3.57;47.17;101365.16;5077046;27;45979;-44
2022/03/08 08:20:54;;;;;;;;;56.00;42.00;;;;;3.64;46.29;101367.34;5076614;27;45376;-42
2022/03/08 08:23:19;;;;;;;;;58.75;43.25;;;;;3.73;46.56;101366.81;5076561;27;45379;-44
2022/03/08 08:25:45;;;;;;;;;67.25;47.25;;;;;3.88;46.75;101359.00;5076911;28;45264;-45
2022/03/08 08:28:10;;;;;;;;;55.25;42.25;;;;;4.05;45.86;101361.50;5076260;27;46041;-46
2022/03/08 08:30:35;;;;;;;;;54.25;44.75;;;;;4.21;45.92;101359.66;5076649;27;45235;-44
2022/03/08 08:33:01;;;;;;;;;28.25;19.25;;;;;4.41;45.74;101365.53;5076580;27;45217;-42
2022/03/08 08:35:27;;;;;;;;;50.00;42.25;;;;;4.73;44.87;101361.78;5076623;27;45419;-44
2022/03/08 08:37:52;;;;;;;;;44.00;38.50;;;;;6.30;44.33;101364.94;5076678;27;46183;-45
2022/03/08 08:40:17;;;;;;;;;61.75;47.00;;;;;8.18;39.71;101365.50;5076226;27;45319;-45
2022/03/08 08:42:43;;;;;;;;;53.50;45.25;;;;;9.80;38.84;101351.81;5075996;27;45476;-44
2022/03/08 08:45:09;;;;;;;;;35.50;30.25;;;;;10.94;37.19;101367.00;5076817;27;45388;-45
2022/03/08 08:47:35;;;;;;;;;60.00;45.50;;;;;11.97;33.62;101369.38;5076122;27;46209;-46
2022/03/08 08:50:01;;;;;;;;;66.00;46.50;;;;;13.23;31.52;101361.03;5076634;27;45472;-42
2022/03/08 08:52:26;;;;;;;;;59.25;42.50;;;;;14.15;30.12;101362.63;5076329;28;45390;-44
2022/03/08 08:54:51;;;;;;;;;44.50;32.25;;;;;14.05;30.40;101359.22;5076382;27;45354;-45
2022/03/08 08:57:17;;;;;;;;;52.00;40.00;;;;;13.81;29.98;101354.47;5076115;27;45366;-44
2022/03/08 08:59:42;;;;;;;;;50.75;41.00;;;;;13.43;29.84;101361.75;5075936;27;45388;-44
2022/03/08 09:02:09;;;;;;;;;59.75;42.50;;;;;13.35;30.25;101357.16;5076181;27;45545;-46
2022/03/08 09:04:34;;;;;;;;;58.25;42.00;;;;;13.04;31.02;101345.91;5076404;27;45441;-44
2022/03/08 09:07:00;;;;;;;;;61.25;42.25;;;;;12.98;30.93;101357.22;5075870;27;46894;-44
2022/03/08 09:09:26;;;;;;;;;57.00;40.50;;;;;13.16;30.50;101346.56;5075628;28;45406;-47
2022/03/08 09:11:51;;;;;;;;;51.25;41.25;;;;;13.39;29.80;101342.50;5076065;27;45319;-45
2022/03/08 09:14:17;;;;;;;;;41.25;31.75;;;;;13.95;30.32;101346.75;5076252;27;45450;-45
2022/03/08 09:16:42;;;;;;;;;51.50;39.75;;;;;15.03;28.63;101343.78;5075317;27;45453;-43
2022/03/08 09:19:08;;;;;;;;;52.00;37.75;;;;;16.42;26.61;101339.47;5075756;27;45404;-45
2022/03/08 09:21:34;;;;;;;;;51.50;38.75;;;;;17.65;29.14;101331.75;5075705;27;45366;-47
2022/03/08 09:23:59;;;;;;;;;56.00;40.00;;;;;18.40;23.97;101331.84;5076129;27;45457;-44
2022/03/08 09:26:25;;;;;;;;;43.00;34.67;;;;;19.06;26.17;101331.13;5078107;27;46273;-47
2022/03/08 09:28:50;;;;;;;;;49.75;40.50;;;;;19.27;23.00;101333.88;5079145;27;45394;-45
2022/03/08 09:31:15;;;;;;;;;54.50;37.00;;;;;19.41;22.47;101334.88;5079489;27;45417;-43
2022/03/08 09:33:42;;;;;;;;;50.67;40.00;;;;;19.81;22.66;101322.66;5079485;27;45348;-44
2022/03/08 09:36:08;;;;;;;;;52.00;41.33;;;;;20.29;22.26;101319.31;5079302;27;45908;-45
2022/03/08 09:38:33;;;;;;;;;49.67;35.33;;;;;20.80;21.38;101316.34;5079213;27;45402;-45
2022/03/08 09:41:01;;;;;;;;;51.33;39.00;;;;;21.42;23.48;101316.22;5078993;27;46184;-47
2022/03/08 09:43:27;;;;;;;;;55.67;41.67;;;;;21.73;20.59;101322.09;5079242;27;45476;-45
2022/03/08 09:45:53;;;;;;;;;56.00;41.00;;;;;22.10;19.96;101310.66;5078896;27;46369;-45
2022/03/08 09:48:18;;;;;;;;;57.00;42.33;;;;;22.50;20.33;101315.22;5078715;27;45431;-45
2022/03/08 09:50:44;;;;;;;;;54.67;43.33;;;;;22.81;19.10;101315.38;5079503;27;45290;-44
2022/03/08 09:53:11;;;;;;;;;53.00;37.67;;;;;23.07;19.98;101314.47;5079280;27;45324;-44
2022/03/08 09:55:37;;;;;;;;;52.00;40.00;;;;;23.38;20.02;101308.25;5078717;27;46283;-45
2022/03/08 09:58:02;;;;;;;;;52.00;38.33;;;;;23.77;21.07;101308.25;5079150;27;45350;-48
2022/03/08 10:00:29;;;;;;;;;50.33;38.00;;;;;23.85;18.54;101302.53;5079027;27;45305;-44
2022/03/08 10:02:58;;;;;;;;;52.67;40.33;;;;;24.03;18.31;101307.22;5079391;27;45367;-46
2022/03/08 10:05:23;;;;;;;;;56.67;41.00;;;;;24.01;17.41;101303.88;5079089;27;45441;-46
2022/03/08 10:08:19;;;;;;;;;54.33;42.00;;;;;23.76;18.39;101304.69;5078728;28;45439;-45
2022/03/08 10:10:51;;;;;;;;;52.33;40.00;;;;;23.51;18.19;101299.22;5078658;27;46001;-44
2022/03/08 10:13:18;;;;;;;;;57.00;40.67;;;;;23.73;19.97;101307.03;5078877;27;45427;-45
2022/03/08 10:15:44;;;;;;;;;49.67;39.00;;;;;24.02;18.14;101292.81;5078393;27;47073;-45
2022/03/08 10:18:09;;;;;;;;;54.67;40.67;;;;;24.34;18.08;101303.56;5078600;27;45432;-46
2022/03/08 10:20:35;;;;;;;;;53.00;41.00;;;;;24.59;17.85;101296.22;5078705;27;45222;-48
2022/03/08 10:23:08;;;;;;;;;55.33;42.67;;;;;24.59;18.09;101295.41;5079033;28;45400;-45
2022/03/08 10:25:33;;;;;;;;;50.33;39.67;;;;;23.70;18.44;101294.72;5077950;27;45516;-44
2022/03/08 10:28:02;;;;;;;;;57.67;44.33;;;;;22.50;19.17;101288.13;5077844;27;45271;-44
2022/03/08 10:30:45;;;;;;;;;54.00;41.67;;;;;22.03;20.16;101285.44;5078602;27;45341;-47
2022/03/08 10:33:11;;;;;;;;;57.67;46.00;;;;;21.81;21.15;101283.97;5078916;27;45386;-44
2022/03/08 10:35:42;;;;;;;;;48.33;34.67;;;;;21.44;20.57;101286.22;5077959;27;47420;-47
2022/03/08 10:38:12;;;;;;;;;50.33;40.33;;;;;21.47;21.92;101288.53;5078258;27;45401;-45
2022/03/08 10:40:38;;;;;;;;;54.67;42.00;;;;;21.02;21.87;101279.19;5078120;27;45450;-45
2022/03/08 10:43:08;;;;;;;;;58.00;44.33;;;;;20.58;22.22;101275.88;5078272;27;45460;-44
2022/03/08 10:45:36;;;;;;;;;58.00;44.67;;;;;20.54;21.95;101285.44;5077864;27;45467;-46
2022/03/08 10:48:06;;;;;;;;;58.33;43.67;;;;;20.60;21.32;101281.91;5077877;27;45586;-48
2022/03/08 10:50:34;;;;;;;;;56.33;42.33;;;;;20.72;23.43;101270.53;5078325;27;45355;-46
2022/03/08 10:53:02;;;;;;;;;57.67;44.67;;;;;20.86;21.28;101262.31;5079123;27;45430;-44
2022/03/08 10:55:35;;;;;;;;;55.33;42.33;;;;;20.94;22.89;101272.09;5078727;27;45584;-45
2022/03/08 10:58:02;;;;;;;;;54.00;42.67;;;;;21.15;21.98;101274.69;5079010;27;45390;-46
2022/03/08 11:00:32;;;;;;;;;59.00;44.00;;;;;21.66;21.04;101263.38;5079240;27;45358;-44
2022/03/08 11:03:00;;;;;;;;;55.33;45.00;;;;;22.76;19.82;101262.81;5079134;27;45303;-45
2022/03/08 11:05:30;;;;;;;;;56.33;42.33;;;;;24.95;18.59;101264.63;5078486;27;46392;-44
2022/03/08 11:07:57;;;;;;;;;54.67;41.00;;;;;27.04;15.95;101261.47;5078621;27;45336;-45
2022/03/08 11:10:23;;;;;;;;;56.33;40.33;;;;;28.77;15.18;101252.50;5078604;27;45334;-44